METAR Data
IDs: Format: Raw Decoded Include TAF

Data at: 1356 UTC 13 Dec 2019

KLIT 131353Z 00000KT 1/16SM FG VV002 03/03 A3002 RMK AO2 SLP167 T00330028 RVRNO $
KLIT 131318Z 00000KT 1/16SM FG VV002 03/03 A3002 RMK AO2 TWR VIS 1/8 T00280028 RVRNO
KLIT 131306Z 10003KT 1/8SM FG VV002 03/03 A3001 RMK AO2 SFC VIS 1/4 T00330028 RVRNO
KLIT 131259Z 00000KT 1 1/2SM BR OVC003 03/03 A3001 RMK AO2 T00330028
KLIT 131253Z 11003KT 5SM BR OVC006 03/03 A3001 RMK AO2 SLP166 T00330028
KLIT 131153Z 00000KT 10SM BKN006 BKN040 OVC200 03/02 A3001 RMK AO2 SLP166 T00280017 10033 20006 56014
KLIT 131149Z 14003KT 10SM BKN006 BKN040 OVC200 03/01 A3001 RMK AO2
KLIT 131141Z 00000KT 10SM FEW006 SCT040 OVC200 03/01 A3002 RMK AO2 T00280011
KLIT 131053Z 00000KT 10SM BKN039 OVC200 03/01 A3002 RMK AO2 SLP169 T00280011
KLIT 130953Z 00000KT 10SM SCT090 BKN250 02/01 A3004 RMK AO2 SLP175 T00170006
KLIT 130853Z 00000KT 10SM FEW090 BKN250 02/01 A3005 RMK AO2 SLP180 T00220006 58020
KLIT 130753Z 00000KT 10SM FEW090 BKN250 02/01 A3008 RMK AO2 SLP189 T00170006
KLIT 130653Z 00000KT 10SM SCT090 BKN250 02/00 A3010 RMK AO2 SLP196 T00170000
KLIT 130553Z 00000KT 10SM BKN250 01/M01 A3011 RMK AO2 SLP200 T00061011 10067 20000 401171022 58012
KLIT 130453Z 00000KT 10SM BKN250 02/00 A3012 RMK AO2 SLP204 T00220000
KLIT 130353Z 00000KT 10SM SCT250 04/01 A3013 RMK AO2 SLP208 T00390006
KLIT 130253Z 17004KT 10SM FEW250 03/00 A3014 RMK AO2 SLP212 T00330000 58005
KLIT 130153Z 15005KT 10SM CLR 04/00 A3016 RMK AO2 SLP218 T00440000
KLIT 130053Z 12004KT 10SM CLR 04/M01 A3016 RMK AO2 SLP219 T00441006
KLIT 122353Z 12005KT 10SM CLR 04/M02 A3016 RMK AO2 SLP217 T00441017 10117 20044 56013
KLIT 122253Z 12006KT 10SM FEW250 07/M03 A3017 RMK AO2 SLP220 FU VSB DSNT NE-E T00721028
KLIT 122153Z 11004KT 10SM SCT250 11/M04 A3018 RMK AO2 SLP224 FU VSB DSNT E T01061039
KLIT 122053Z 09008KT 10SM BKN250 11/M04 A3020 RMK AO2 SLP229 T01111039 56038
KLIT 121953Z 10005KT 10SM BKN250 11/M04 A3022 RMK AO2 SLP238 T01111039
KLIT 121853Z VRB03KT 10SM OVC250 11/M04 A3027 RMK AO2 SLP253 BINOVC T01111044
KLIT 121753Z 19003KT 10SM BKN250 10/M03 A3031 RMK AO2 SLP267 T01001028 10100 21022 58035
KLIT 121653Z 12007KT 10SM BKN250 09/M02 A3037 RMK AO2 SLP286 T00891017
KLIT 121553Z 12005KT 10SM BKN250 06/00 A3040 RMK AO2 SLP299 T00560000
KLIT 121453Z 00000KT 10SM BKN250 03/00 A3041 RMK AO2 SLP304 T00280000 56005
KLIT 121353Z COR 00000KT 10SM BKN250 M01/M02 A3043 RMK AO2 SLP308 T10061022
KLIT 121253Z 00000KT 10SM BKN250 M01/M03 A3041 RMK AO2 SLP303 T10111028
KLIT 121153Z 00000KT 10SM BKN250 M02/M02 A3043 RMK AO2 SLP309 T10171022 10022 21022 55004
KLIT 121053Z 00000KT 10SM BKN250 M01/M03 A3043 RMK AO2 SLP308 T10111028
KLIT 120953Z 00000KT 10SM BKN250 M01/M03 A3043 RMK AO2 SLP308 T10111028
KLIT 120853Z 11003KT 10SM BKN250 M02/M03 A3044 RMK AO2 SLP313 T10171033 58014
KLIT 120753Z 00000KT 10SM BKN250 M01/M02 A3046 RMK AO2 SLP319 T10061017
KLIT 120653Z 00000KT 10SM SCT250 02/M02 A3047 RMK AO2 SLP322 T00171022
KLIT 120553Z 00000KT 10SM FEW250 01/M03 A3049 RMK AO2 SLP327 T00061028 10050 20000 401111044 50001
KLIT 120453Z 17003KT 10SM FEW250 01/M03 A3049 RMK AO2 SLP328 T00061028
KLIT 120353Z 15003KT 10SM FEW250 01/M03 A3048 RMK AO2 SLP327 T00111028
KLIT 120253Z 16006KT 10SM CLR 02/M03 A3048 RMK AO2 SLP327 T00171028 58001